createdAt,value
2019-04-16T00:04:41.893Z,16.20
2019-04-16T00:24:57.359Z,14.30
2019-04-16T00:35:03.780Z,14.70
2019-04-16T00:45:10.388Z,14.77
2019-04-16T00:55:16.773Z,12.93
2019-04-16T01:05:23.194Z,11.90
2019-04-16T01:15:32.838Z,11.27
2019-04-16T01:25:40.742Z,10.47
2019-04-16T01:36:02.698Z,9.97
2019-04-16T01:46:09.757Z,10.93
2019-04-16T01:56:15.909Z,11.13
2019-04-16T02:06:25.619Z,9.30
2019-04-16T02:16:31.412Z,10.13
2019-04-16T02:26:37.353Z,9.07
2019-04-16T02:36:43.456Z,9.90
2019-04-16T02:46:49.506Z,10.60
2019-04-16T02:57:01.316Z,6.70
2019-04-16T03:07:07.399Z,9.53
2019-04-16T03:17:28.419Z,8.10
2019-04-16T03:27:35.600Z,9.17
2019-04-16T03:37:41.908Z,7.83
2019-04-16T03:47:50.936Z,9.47
2019-04-16T03:57:55.772Z,9.83
2019-04-16T04:08:02.774Z,21.67
2019-04-16T04:18:11.679Z,9.57
2019-04-16T04:28:19.760Z,13.67
2019-04-16T04:48:31.740Z,10.40
2019-04-16T04:58:38.304Z,9.63
2019-04-16T05:08:45.493Z,12.20
2019-04-16T05:18:51.817Z,12.95
2019-04-16T05:28:59.448Z,12.50
2019-04-16T05:39:08.083Z,11.93
2019-04-16T05:49:15.480Z,11.50
2019-04-16T05:59:21.410Z,10.13
2019-04-16T06:09:27.726Z,11.03
2019-04-16T06:19:46.412Z,9.88
2019-04-16T06:30:01.438Z,9.58
2019-04-16T06:40:32.601Z,9.97
2019-04-16T07:02:00.338Z,9.48
2019-04-16T07:12:11.795Z,6.47
2019-04-16T07:22:22.928Z,2.77
2019-04-16T07:32:52.149Z,4.17
2019-04-16T07:43:00.697Z,4.30
2019-04-16T07:53:24.582Z,4.05
2019-04-16T08:03:39.276Z,3.42
2019-04-16T08:13:52.654Z,4.08
2019-04-16T08:24:05.488Z,5.70
2019-04-16T08:34:13.845Z,5.20
2019-04-16T08:44:22.238Z,3.25
2019-04-16T08:54:30.308Z,4.50
2019-04-16T09:04:47.764Z,4.30
2019-04-16T09:15:02.312Z,3.20
2019-04-16T09:25:17.122Z,3.77
2019-04-16T09:35:25.300Z,5.00
2019-04-16T09:45:33.872Z,3.22
2019-04-16T09:55:39.002Z,3.80
2019-04-16T10:05:45.155Z,4.55
2019-04-16T10:15:51.096Z,3.80
2019-04-16T10:25:57.558Z,4.00
2019-04-16T10:36:05.911Z,3.40
2019-04-16T10:46:14.208Z,4.28
2019-04-16T10:56:37.944Z,3.17
2019-04-16T11:07:03.167Z,5.10
2019-04-16T11:17:17.659Z,5.33
2019-04-16T11:37:59.303Z,5.50
2019-04-16T11:48:11.233Z,5.50
2019-04-16T11:58:35.919Z,5.40
2019-04-16T12:08:51.512Z,7.35
2019-04-16T12:19:15.977Z,8.10
2019-04-16T12:29:24.883Z,6.65
2019-04-16T12:39:38.861Z,6.55
2019-04-16T12:49:58.249Z,7.58
2019-04-16T13:00:16.744Z,5.50
2019-04-16T13:20:48.718Z,4.97
2019-04-16T13:30:55.878Z,5.40
2019-04-16T13:41:02.669Z,3.47
2019-04-16T13:51:18.517Z,4.33
2019-04-16T14:01:21.206Z,5.00
2019-04-16T14:11:30.832Z,5.00
2019-04-16T14:21:36.887Z,3.92
2019-04-16T14:31:46.210Z,4.42
2019-04-16T14:41:52.194Z,4.35
2019-04-16T14:52:02.030Z,7.08
2019-04-16T15:12:13.689Z,5.95
2019-04-16T15:22:24.039Z,5.87
2019-04-16T15:32:41.785Z,6.12
2019-04-16T15:42:50.521Z,5.67
2019-04-16T15:52:58.234Z,4.87
2019-04-16T16:03:03.824Z,5.13
2019-04-16T16:13:10.195Z,4.17
2019-04-16T16:23:16.175Z,4.35
2019-04-16T16:33:22.065Z,4.30
2019-04-16T16:43:29.248Z,4.72
2019-04-16T16:53:52.848Z,5.83
2019-04-16T17:04:00.774Z,5.40
2019-04-16T17:14:07.410Z,4.93
2019-04-16T17:24:15.406Z,6.78
2019-04-16T17:34:24.577Z,7.33
2019-04-16T17:44:38.422Z,12.68
2019-04-16T17:54:54.526Z,5.15
2019-04-16T18:05:23.262Z,5.50
2019-04-16T18:15:42.475Z,6.28
2019-04-16T18:25:56.818Z,14.07
2019-04-16T18:36:14.237Z,7.50
2019-04-16T18:46:26.996Z,6.70
2019-04-16T18:56:33.005Z,6.75
2019-04-16T19:06:39.397Z,7.95
2019-04-16T19:16:46.651Z,7.42
2019-04-16T19:26:54.394Z,8.63
2019-04-16T19:37:02.108Z,8.07
2019-04-16T19:47:08.297Z,7.03
2019-04-16T19:57:15.229Z,6.05
2019-04-16T20:07:26.015Z,8.83
2019-04-16T20:17:32.557Z,5.60
2019-04-16T20:27:40.757Z,7.00
2019-04-16T20:47:56.792Z,7.25
2019-04-16T20:58:04.508Z,5.05
2019-04-16T21:08:10.519Z,6.25
2019-04-16T21:18:16.562Z,6.47
2019-04-16T21:28:42.624Z,3.80
2019-04-16T21:38:50.064Z,3.22
2019-04-16T21:49:00.881Z,3.73
2019-04-16T21:59:08.829Z,3.70
2019-04-16T22:09:17.323Z,3.42
2019-04-16T22:19:24.293Z,2.83
2019-04-16T22:29:30.192Z,4.70
2019-04-16T22:39:50.898Z,15.38
2019-04-16T22:50:17.283Z,6.85
2019-04-16T23:01:08.506Z,7.62
2019-04-16T23:10:58.686Z,6.83
2019-04-16T23:21:09.531Z,8.93
2019-04-16T23:31:13.192Z,35.03
2019-04-16T23:41:19.941Z,18.52
2019-04-16T23:51:30.733Z,9.93
